sensor_id;sensor_type;location;lat;lon;timestamp;P1;durP1;ratioP1;P2;durP2;ratioP2
45236;SDS011;30973;51.442;3.580;2022-07-23T00:01:49;3.28;;;2.30;;
45236;SDS011;30973;51.442;3.580;2022-07-23T00:04:16;7.07;;;2.30;;
45236;SDS011;30973;51.442;3.580;2022-07-23T00:06:43;7.97;;;2.55;;
45236;SDS011;30973;51.442;3.580;2022-07-23T00:09:11;4.05;;;2.50;;
45236;SDS011;30973;51.442;3.580;2022-07-23T00:11:38;5.20;;;2.83;;
45236;SDS011;30973;51.442;3.580;2022-07-23T00:14:05;6.40;;;2.85;;
45236;SDS011;30973;51.442;3.580;2022-07-23T00:16:33;5.43;;;2.63;;
45236;SDS011;30973;51.442;3.580;2022-07-23T00:19:00;5.97;;;2.80;;
45236;SDS011;30973;51.442;3.580;2022-07-23T00:21:29;3.28;;;2.20;;
45236;SDS011;30973;51.442;3.580;2022-07-23T00:23:57;3.97;;;2.25;;
45236;SDS011;30973;51.442;3.580;2022-07-23T00:26:24;7.32;;;2.55;;
45236;SDS011;30973;51.442;3.580;2022-07-23T00:28:52;4.90;;;2.40;;
45236;SDS011;30973;51.442;3.580;2022-07-23T00:31:19;4.57;;;2.47;;
45236;SDS011;30973;51.442;3.580;2022-07-23T00:33:46;4.57;;;2.20;;
45236;SDS011;30973;51.442;3.580;2022-07-23T00:36:15;5.95;;;2.22;;
45236;SDS011;30973;51.442;3.580;2022-07-23T00:38:43;4.97;;;2.38;;
45236;SDS011;30973;51.442;3.580;2022-07-23T00:41:10;4.47;;;2.58;;
45236;SDS011;30973;51.442;3.580;2022-07-23T00:43:37;3.75;;;1.90;;
45236;SDS011;30973;51.442;3.580;2022-07-23T00:46:04;3.28;;;1.90;;
45236;SDS011;30973;51.442;3.580;2022-07-23T00:48:32;4.82;;;2.10;;
45236;SDS011;30973;51.442;3.580;2022-07-23T00:50:59;5.57;;;2.50;;
45236;SDS011;30973;51.442;3.580;2022-07-23T00:53:26;3.90;;;2.33;;
45236;SDS011;30973;51.442;3.580;2022-07-23T00:55:54;4.07;;;2.38;;
45236;SDS011;30973;51.442;3.580;2022-07-23T00:58:21;5.13;;;2.33;;
45236;SDS011;30973;51.442;3.580;2022-07-23T01:00:49;4.97;;;2.70;;
45236;SDS011;30973;51.442;3.580;2022-07-23T01:03:16;5.07;;;2.40;;
45236;SDS011;30973;51.442;3.580;2022-07-23T01:05:43;6.20;;;2.53;;
45236;SDS011;30973;51.442;3.580;2022-07-23T01:08:11;6.40;;;2.75;;
45236;SDS011;30973;51.442;3.580;2022-07-23T01:10:39;3.92;;;2.83;;
45236;SDS011;30973;51.442;3.580;2022-07-23T01:13:08;4.95;;;2.50;;
45236;SDS011;30973;51.442;3.580;2022-07-23T01:15:37;3.20;;;2.15;;
45236;SDS011;30973;51.442;3.580;2022-07-23T01:18:05;3.92;;;2.50;;
45236;SDS011;30973;51.442;3.580;2022-07-23T01:20:35;5.63;;;2.60;;
45236;SDS011;30973;51.442;3.580;2022-07-23T01:23:02;4.90;;;2.70;;
45236;SDS011;30973;51.442;3.580;2022-07-23T01:25:29;3.88;;;2.55;;
45236;SDS011;30973;51.442;3.580;2022-07-23T01:28:00;5.70;;;2.70;;
45236;SDS011;30973;51.442;3.580;2022-07-23T01:30:27;9.38;;;2.90;;
45236;SDS011;30973;51.442;3.580;2022-07-23T01:32:56;4.28;;;2.45;;
45236;SDS011;30973;51.442;3.580;2022-07-23T01:35:24;5.22;;;2.47;;
45236;SDS011;30973;51.442;3.580;2022-07-23T01:37:55;5.80;;;2.67;;
45236;SDS011;30973;51.442;3.580;2022-07-23T01:40:22;6.38;;;2.60;;
45236;SDS011;30973;51.442;3.580;2022-07-23T01:42:50;4.03;;;2.35;;
45236;SDS011;30973;51.442;3.580;2022-07-23T01:45:18;4.88;;;3.03;;
45236;SDS011;30973;51.442;3.580;2022-07-23T01:47:50;5.45;;;2.88;;
45236;SDS011;30973;51.442;3.580;2022-07-23T01:50:17;5.50;;;2.80;;
45236;SDS011;30973;51.442;3.580;2022-07-23T01:53:00;7.70;;;3.28;;
45236;SDS011;30973;51.442;3.580;2022-07-23T01:55:27;6.25;;;3.17;;
45236;SDS011;30973;51.442;3.580;2022-07-23T01:57:55;8.73;;;3.30;;
45236;SDS011;30973;51.442;3.580;2022-07-23T02:00:27;5.22;;;3.35;;
45236;SDS011;30973;51.442;3.580;2022-07-23T02:02:54;7.57;;;3.80;;
45236;SDS011;30973;51.442;3.580;2022-07-23T02:05:22;6.97;;;3.42;;
45236;SDS011;30973;51.442;3.580;2022-07-23T02:07:49;7.38;;;3.72;;
45236;SDS011;30973;51.442;3.580;2022-07-23T02:10:17;5.20;;;3.13;;
45236;SDS011;30973;51.442;3.580;2022-07-23T02:12:44;6.13;;;3.30;;
45236;SDS011;30973;51.442;3.580;2022-07-23T02:15:13;5.68;;;3.50;;
45236;SDS011;30973;51.442;3.580;2022-07-23T02:17:40;5.82;;;3.65;;
45236;SDS011;30973;51.442;3.580;2022-07-23T02:20:08;6.35;;;3.85;;
45236;SDS011;30973;51.442;3.580;2022-07-23T02:22:37;9.10;;;4.00;;
45236;SDS011;30973;51.442;3.580;2022-07-23T02:25:05;5.03;;;3.70;;
45236;SDS011;30973;51.442;3.580;2022-07-23T02:27:33;6.80;;;3.75;;
45236;SDS011;30973;51.442;3.580;2022-07-23T02:30:04;7.53;;;3.78;;
45236;SDS011;30973;51.442;3.580;2022-07-23T02:32:33;5.53;;;3.80;;
45236;SDS011;30973;51.442;3.580;2022-07-23T02:35:01;5.28;;;3.75;;
45236;SDS011;30973;51.442;3.580;2022-07-23T02:37:30;9.63;;;4.53;;
45236;SDS011;30973;51.442;3.580;2022-07-23T02:39:57;8.25;;;3.60;;
45236;SDS011;30973;51.442;3.580;2022-07-23T02:42:24;5.00;;;3.20;;
45236;SDS011;30973;51.442;3.580;2022-07-23T02:44:52;6.15;;;3.45;;
45236;SDS011;30973;51.442;3.580;2022-07-23T02:47:19;7.95;;;3.80;;
45236;SDS011;30973;51.442;3.580;2022-07-23T02:49:46;8.95;;;3.80;;
45236;SDS011;30973;51.442;3.580;2022-07-23T02:52:14;6.18;;;3.90;;
45236;SDS011;30973;51.442;3.580;2022-07-23T02:54:42;5.15;;;3.53;;
45236;SDS011;30973;51.442;3.580;2022-07-23T02:57:11;8.82;;;3.95;;
45236;SDS011;30973;51.442;3.580;2022-07-23T02:59:38;6.35;;;3.80;;
45236;SDS011;30973;51.442;3.580;2022-07-23T03:02:06;6.20;;;3.55;;
45236;SDS011;30973;51.442;3.580;2022-07-23T03:04:33;9.50;;;3.78;;
45236;SDS011;30973;51.442;3.580;2022-07-23T03:07:00;7.10;;;3.60;;
45236;SDS011;30973;51.442;3.580;2022-07-23T03:09:28;7.38;;;4.03;;
45236;SDS011;30973;51.442;3.580;2022-07-23T03:11:55;6.57;;;4.55;;
45236;SDS011;30973;51.442;3.580;2022-07-23T03:14:22;10.07;;;4.70;;
45236;SDS011;30973;51.442;3.580;2022-07-23T03:16:49;8.60;;;4.80;;
45236;SDS011;30973;51.442;3.580;2022-07-23T03:19:20;7.13;;;4.30;;
45236;SDS011;30973;51.442;3.580;2022-07-23T03:21:47;5.60;;;4.18;;
45236;SDS011;30973;51.442;3.580;2022-07-23T03:24:14;5.78;;;4.32;;
45236;SDS011;30973;51.442;3.580;2022-07-23T03:26:44;8.27;;;4.32;;
45236;SDS011;30973;51.442;3.580;2022-07-23T03:29:11;7.05;;;4.30;;
45236;SDS011;30973;51.442;3.580;2022-07-23T03:31:39;6.03;;;4.50;;
45236;SDS011;30973;51.442;3.580;2022-07-23T03:34:07;8.30;;;5.30;;
45236;SDS011;30973;51.442;3.580;2022-07-23T03:36:34;10.25;;;4.82;;
45236;SDS011;30973;51.442;3.580;2022-07-23T03:39:03;6.13;;;4.78;;
45236;SDS011;30973;51.442;3.580;2022-07-23T03:41:31;6.10;;;4.95;;
45236;SDS011;30973;51.442;3.580;2022-07-23T03:43:58;10.13;;;5.07;;
45236;SDS011;30973;51.442;3.580;2022-07-23T03:46:26;8.00;;;4.68;;
45236;SDS011;30973;51.442;3.580;2022-07-23T03:48:53;9.43;;;5.10;;
45236;SDS011;30973;51.442;3.580;2022-07-23T03:51:24;9.40;;;5.50;;
45236;SDS011;30973;51.442;3.580;2022-07-23T03:53:52;6.45;;;5.03;;
45236;SDS011;30973;51.442;3.580;2022-07-23T03:56:19;7.40;;;5.30;;
45236;SDS011;30973;51.442;3.580;2022-07-23T03:58:47;8.35;;;5.80;;
45236;SDS011;30973;51.442;3.580;2022-07-23T04:01:14;8.13;;;5.93;;
45236;SDS011;30973;51.442;3.580;2022-07-23T04:03:41;8.02;;;6.05;;
45236;SDS011;30973;51.442;3.580;2022-07-23T04:06:10;10.05;;;6.13;;
45236;SDS011;30973;51.442;3.580;2022-07-23T04:08:38;8.88;;;5.82;;
45236;SDS011;30973;51.442;3.580;2022-07-23T04:11:05;9.27;;;6.10;;
45236;SDS011;30973;51.442;3.580;2022-07-23T04:13:32;9.43;;;6.00;;
45236;SDS011;30973;51.442;3.580;2022-07-23T04:16:01;9.50;;;6.20;;
45236;SDS011;30973;51.442;3.580;2022-07-23T04:18:30;10.95;;;6.50;;
45236;SDS011;30973;51.442;3.580;2022-07-23T04:21:05;7.90;;;6.38;;
45236;SDS011;30973;51.442;3.580;2022-07-23T04:23:34;9.38;;;6.72;;
45236;SDS011;30973;51.442;3.580;2022-07-23T04:26:02;8.80;;;5.80;;
45236;SDS011;30973;51.442;3.580;2022-07-23T04:28:30;9.25;;;6.70;;
45236;SDS011;30973;51.442;3.580;2022-07-23T04:30:58;10.55;;;6.47;;
45236;SDS011;30973;51.442;3.580;2022-07-23T04:33:26;9.27;;;6.60;;
45236;SDS011;30973;51.442;3.580;2022-07-23T04:35:56;9.65;;;7.18;;
45236;SDS011;30973;51.442;3.580;2022-07-23T04:38:23;9.70;;;6.88;;
45236;SDS011;30973;51.442;3.580;2022-07-23T04:40:55;8.00;;;6.20;;
45236;SDS011;30973;51.442;3.580;2022-07-23T04:43:22;7.80;;;5.85;;
45236;SDS011;30973;51.442;3.580;2022-07-23T04:45:50;10.00;;;6.72;;
45236;SDS011;30973;51.442;3.580;2022-07-23T04:48:18;10.65;;;6.70;;
45236;SDS011;30973;51.442;3.580;2022-07-23T04:50:49;10.35;;;5.82;;
45236;SDS011;30973;51.442;3.580;2022-07-23T04:53:21;8.07;;;5.88;;
45236;SDS011;30973;51.442;3.580;2022-07-23T04:55:52;7.57;;;5.60;;
45236;SDS011;30973;51.442;3.580;2022-07-23T04:58:19;10.05;;;5.68;;
45236;SDS011;30973;51.442;3.580;2022-07-23T05:00:47;6.35;;;5.28;;
45236;SDS011;30973;51.442;3.580;2022-07-23T05:03:14;8.35;;;5.35;;
45236;SDS011;30973;51.442;3.580;2022-07-23T05:05:45;6.43;;;4.50;;
45236;SDS011;30973;51.442;3.580;2022-07-23T05:08:15;6.63;;;4.65;;
45236;SDS011;30973;51.442;3.580;2022-07-23T05:10:46;7.43;;;4.88;;
45236;SDS011;30973;51.442;3.580;2022-07-23T05:13:14;8.10;;;5.13;;
45236;SDS011;30973;51.442;3.580;2022-07-23T05:15:42;12.65;;;4.60;;
45236;SDS011;30973;51.442;3.580;2022-07-23T05:18:10;7.38;;;4.10;;
45236;SDS011;30973;51.442;3.580;2022-07-23T05:20:38;9.00;;;4.38;;
45236;SDS011;30973;51.442;3.580;2022-07-23T05:23:06;7.47;;;4.20;;
45236;SDS011;30973;51.442;3.580;2022-07-23T05:25:34;6.78;;;4.32;;
45236;SDS011;30973;51.442;3.580;2022-07-23T05:28:01;8.30;;;4.35;;
45236;SDS011;30973;51.442;3.580;2022-07-23T05:30:29;5.90;;;4.32;;
45236;SDS011;30973;51.442;3.580;2022-07-23T05:33:00;10.80;;;4.70;;
45236;SDS011;30973;51.442;3.580;2022-07-23T05:35:27;5.65;;;4.55;;
45236;SDS011;30973;51.442;3.580;2022-07-23T05:38:20;8.45;;;5.10;;
45236;SDS011;30973;51.442;3.580;2022-07-23T05:40:48;6.72;;;4.40;;
45236;SDS011;30973;51.442;3.580;2022-07-23T05:43:17;7.90;;;4.82;;
45236;SDS011;30973;51.442;3.580;2022-07-23T05:45:44;5.68;;;4.32;;
45236;SDS011;30973;51.442;3.580;2022-07-23T05:48:12;5.45;;;4.15;;
45236;SDS011;30973;51.442;3.580;2022-07-23T05:50:55;6.13;;;3.58;;
45236;SDS011;30973;51.442;3.580;2022-07-23T05:53:30;6.63;;;3.85;;
45236;SDS011;30973;51.442;3.580;2022-07-23T05:56:08;7.47;;;4.22;;
45236;SDS011;30973;51.442;3.580;2022-07-23T05:58:36;7.82;;;4.25;;
45236;SDS011;30973;51.442;3.580;2022-07-23T06:01:03;6.00;;;4.00;;
45236;SDS011;30973;51.442;3.580;2022-07-23T06:03:39;8.23;;;4.18;;
45236;SDS011;30973;51.442;3.580;2022-07-23T06:06:06;7.93;;;4.88;;
45236;SDS011;30973;51.442;3.580;2022-07-23T06:08:35;6.57;;;3.60;;
45236;SDS011;30973;51.442;3.580;2022-07-23T06:11:02;6.38;;;4.50;;
45236;SDS011;30973;51.442;3.580;2022-07-23T06:13:29;7.22;;;4.00;;
45236;SDS011;30973;51.442;3.580;2022-07-23T06:15:57;7.13;;;3.97;;
45236;SDS011;30973;51.442;3.580;2022-07-23T06:18:24;8.95;;;4.15;;
45236;SDS011;30973;51.442;3.580;2022-07-23T06:20:53;6.68;;;3.85;;
45236;SDS011;30973;51.442;3.580;2022-07-23T06:23:26;6.68;;;3.72;;
45236;SDS011;30973;51.442;3.580;2022-07-23T06:25:53;8.27;;;4.07;;
45236;SDS011;30973;51.442;3.580;2022-07-23T06:28:20;5.03;;;3.65;;
45236;SDS011;30973;51.442;3.580;2022-07-23T06:30:48;6.60;;;3.70;;
45236;SDS011;30973;51.442;3.580;2022-07-23T06:33:15;5.72;;;3.65;;
45236;SDS011;30973;51.442;3.580;2022-07-23T06:35:43;5.78;;;3.83;;
45236;SDS011;30973;51.442;3.580;2022-07-23T06:38:10;6.53;;;3.60;;
45236;SDS011;30973;51.442;3.580;2022-07-23T06:40:40;5.72;;;4.05;;
45236;SDS011;30973;51.442;3.580;2022-07-23T06:43:08;7.75;;;4.13;;
45236;SDS011;30973;51.442;3.580;2022-07-23T06:45:36;4.95;;;4.07;;
45236;SDS011;30973;51.442;3.580;2022-07-23T06:48:04;7.75;;;3.92;;
45236;SDS011;30973;51.442;3.580;2022-07-23T06:50:31;5.70;;;3.75;;
45236;SDS011;30973;51.442;3.580;2022-07-23T06:52:58;8.63;;;5.20;;
45236;SDS011;30973;51.442;3.580;2022-07-23T06:55:26;6.32;;;3.95;;
45236;SDS011;30973;51.442;3.580;2022-07-23T06:57:53;8.32;;;4.35;;
45236;SDS011;30973;51.442;3.580;2022-07-23T07:00:21;6.78;;;4.55;;
45236;SDS011;30973;51.442;3.580;2022-07-23T07:02:48;7.40;;;4.20;;
45236;SDS011;30973;51.442;3.580;2022-07-23T07:05:15;5.80;;;4.80;;
45236;SDS011;30973;51.442;3.580;2022-07-23T07:07:42;6.22;;;4.10;;
45236;SDS011;30973;51.442;3.580;2022-07-23T07:10:10;9.68;;;4.45;;
45236;SDS011;30973;51.442;3.580;2022-07-23T07:12:41;5.07;;;4.28;;
45236;SDS011;30973;51.442;3.580;2022-07-23T07:15:09;6.70;;;4.18;;
45236;SDS011;30973;51.442;3.580;2022-07-23T07:17:37;6.65;;;4.10;;
45236;SDS011;30973;51.442;3.580;2022-07-23T07:20:04;4.88;;;4.03;;
45236;SDS011;30973;51.442;3.580;2022-07-23T07:22:32;6.35;;;4.18;;
45236;SDS011;30973;51.442;3.580;2022-07-23T07:24:59;5.57;;;4.30;;
45236;SDS011;30973;51.442;3.580;2022-07-23T07:27:27;8.40;;;4.10;;
45236;SDS011;30973;51.442;3.580;2022-07-23T07:29:54;5.00;;;4.00;;
45236;SDS011;30973;51.442;3.580;2022-07-23T07:32:21;6.40;;;4.40;;
45236;SDS011;30973;51.442;3.580;2022-07-23T07:35:09;6.70;;;4.43;;
45236;SDS011;30973;51.442;3.580;2022-07-23T07:37:36;7.78;;;5.45;;
45236;SDS011;30973;51.442;3.580;2022-07-23T07:40:03;6.95;;;4.85;;
45236;SDS011;30973;51.442;3.580;2022-07-23T07:42:31;7.22;;;4.85;;
45236;SDS011;30973;51.442;3.580;2022-07-23T07:44:58;8.23;;;4.15;;
45236;SDS011;30973;51.442;3.580;2022-07-23T07:47:26;7.72;;;5.18;;
45236;SDS011;30973;51.442;3.580;2022-07-23T07:49:53;9.07;;;5.00;;
45236;SDS011;30973;51.442;3.580;2022-07-23T07:52:21;7.35;;;4.65;;
45236;SDS011;30973;51.442;3.580;2022-07-23T07:54:48;7.78;;;4.90;;
45236;SDS011;30973;51.442;3.580;2022-07-23T07:57:15;8.02;;;4.85;;
45236;SDS011;30973;51.442;3.580;2022-07-23T07:59:42;6.53;;;4.88;;
45236;SDS011;30973;51.442;3.580;2022-07-23T08:02:11;5.90;;;5.07;;
45236;SDS011;30973;51.442;3.580;2022-07-23T08:04:38;8.07;;;5.40;;
45236;SDS011;30973;51.442;3.580;2022-07-23T08:07:05;7.13;;;5.13;;
45236;SDS011;30973;51.442;3.580;2022-07-23T08:09:33;8.93;;;5.68;;
45236;SDS011;30973;51.442;3.580;2022-07-23T08:12:00;8.20;;;5.20;;
45236;SDS011;30973;51.442;3.580;2022-07-23T08:14:27;7.18;;;5.25;;
45236;SDS011;30973;51.442;3.580;2022-07-23T08:16:54;8.73;;;5.32;;
45236;SDS011;30973;51.442;3.580;2022-07-23T08:22:06;9.40;;;6.10;;
45236;SDS011;30973;51.442;3.580;2022-07-23T08:24:34;6.70;;;5.30;;
45236;SDS011;30973;51.442;3.580;2022-07-23T08:27:01;9.25;;;5.78;;
45236;SDS011;30973;51.442;3.580;2022-07-23T08:29:29;7.72;;;5.72;;
45236;SDS011;30973;51.442;3.580;2022-07-23T08:31:56;9.25;;;5.90;;
45236;SDS011;30973;51.442;3.580;2022-07-23T08:34:23;9.27;;;6.20;;
45236;SDS011;30973;51.442;3.580;2022-07-23T08:36:51;9.07;;;6.53;;
45236;SDS011;30973;51.442;3.580;2022-07-23T08:39:18;11.77;;;7.00;;
45236;SDS011;30973;51.442;3.580;2022-07-23T08:41:45;10.63;;;6.40;;
45236;SDS011;30973;51.442;3.580;2022-07-23T08:44:15;9.00;;;6.07;;
45236;SDS011;30973;51.442;3.580;2022-07-23T08:46:43;9.93;;;6.97;;
45236;SDS011;30973;51.442;3.580;2022-07-23T08:49:11;10.57;;;6.88;;
45236;SDS011;30973;51.442;3.580;2022-07-23T08:51:40;10.40;;;7.55;;
45236;SDS011;30973;51.442;3.580;2022-07-23T08:54:07;9.75;;;7.65;;
45236;SDS011;30973;51.442;3.580;2022-07-23T08:56:35;10.10;;;7.55;;
45236;SDS011;30973;51.442;3.580;2022-07-23T08:59:02;11.43;;;7.68;;
45236;SDS011;30973;51.442;3.580;2022-07-23T09:01:29;10.43;;;7.85;;
45236;SDS011;30973;51.442;3.580;2022-07-23T09:03:57;11.07;;;8.25;;
45236;SDS011;30973;51.442;3.580;2022-07-23T09:06:26;12.50;;;8.68;;
45236;SDS011;30973;51.442;3.580;2022-07-23T09:08:53;12.23;;;8.93;;
45236;SDS011;30973;51.442;3.580;2022-07-23T09:11:20;13.30;;;9.23;;
45236;SDS011;30973;51.442;3.580;2022-07-23T09:13:48;10.60;;;8.55;;
45236;SDS011;30973;51.442;3.580;2022-07-23T09:16:17;15.05;;;10.02;;
45236;SDS011;30973;51.442;3.580;2022-07-23T09:21:31;11.33;;;9.90;;
45236;SDS011;30973;51.442;3.580;2022-07-23T09:24:12;11.10;;;9.55;;
45236;SDS011;30973;51.442;3.580;2022-07-23T09:26:46;14.77;;;9.68;;
45236;SDS011;30973;51.442;3.580;2022-07-23T09:31:55;13.25;;;10.98;;
45236;SDS011;30973;51.442;3.580;2022-07-23T09:34:24;15.35;;;11.40;;
45236;SDS011;30973;51.442;3.580;2022-07-23T09:36:58;13.50;;;11.38;;
45236;SDS011;30973;51.442;3.580;2022-07-23T09:39:48;14.10;;;10.75;;
45236;SDS011;30973;51.442;3.580;2022-07-23T09:42:17;14.55;;;11.35;;
45236;SDS011;30973;51.442;3.580;2022-07-23T09:44:50;15.38;;;11.43;;
45236;SDS011;30973;51.442;3.580;2022-07-23T09:47:28;14.27;;;11.30;;
45236;SDS011;30973;51.442;3.580;2022-07-23T09:50:02;15.75;;;11.20;;
45236;SDS011;30973;51.442;3.580;2022-07-23T09:52:43;13.95;;;11.50;;
45236;SDS011;30973;51.442;3.580;2022-07-23T09:55:17;14.48;;;11.93;;
45236;SDS011;30973;51.442;3.580;2022-07-23T09:57:45;16.67;;;12.27;;
45236;SDS011;30973;51.442;3.580;2022-07-23T10:00:22;15.35;;;11.98;;
45236;SDS011;30973;51.442;3.580;2022-07-23T10:02:50;14.48;;;11.68;;
45236;SDS011;30973;51.442;3.580;2022-07-23T10:05:28;16.25;;;11.70;;
45236;SDS011;30973;51.442;3.580;2022-07-23T10:08:16;13.30;;;11.27;;
45236;SDS011;30973;51.442;3.580;2022-07-23T10:11:17;14.95;;;12.20;;
45236;SDS011;30973;51.442;3.580;2022-07-23T10:14:13;17.13;;;12.50;;
45236;SDS011;30973;51.442;3.580;2022-07-23T10:16:52;16.92;;;12.27;;
45236;SDS011;30973;51.442;3.580;2022-07-23T10:19:20;14.90;;;12.10;;
45236;SDS011;30973;51.442;3.580;2022-07-23T10:21:50;15.57;;;12.05;;
45236;SDS011;30973;51.442;3.580;2022-07-23T10:24:30;17.55;;;12.10;;
45236;SDS011;30973;51.442;3.580;2022-07-23T10:30:28;17.48;;;12.85;;
45236;SDS011;30973;51.442;3.580;2022-07-23T10:33:18;15.90;;;12.80;;
45236;SDS011;30973;51.442;3.580;2022-07-23T10:36:15;19.17;;;14.00;;
45236;SDS011;30973;51.442;3.580;2022-07-23T10:39:32;18.17;;;13.48;;
45236;SDS011;30973;51.442;3.580;2022-07-23T10:41:50;16.10;;;12.93;;
45236;SDS011;30973;51.442;3.580;2022-07-23T10:44:18;16.13;;;11.90;;
45236;SDS011;30973;51.442;3.580;2022-07-23T10:46:53;16.02;;;13.20;;
45236;SDS011;30973;51.442;3.580;2022-07-23T10:49:34;15.68;;;12.32;;
45236;SDS011;30973;51.442;3.580;2022-07-23T10:54:42;18.60;;;13.30;;
45236;SDS011;30973;51.442;3.580;2022-07-23T10:57:27;22.60;;;14.45;;
45236;SDS011;30973;51.442;3.580;2022-07-23T11:02:41;18.50;;;14.23;;
45236;SDS011;30973;51.442;3.580;2022-07-23T11:05:11;18.00;;;13.40;;
45236;SDS011;30973;51.442;3.580;2022-07-23T11:19:03;18.52;;;15.02;;
45236;SDS011;30973;51.442;3.580;2022-07-23T11:29:37;19.10;;;16.75;;
45236;SDS011;30973;51.442;3.580;2022-07-23T11:32:23;18.13;;;16.02;;
45236;SDS011;30973;51.442;3.580;2022-07-23T11:34:54;21.55;;;16.02;;
45236;SDS011;30973;51.442;3.580;2022-07-23T11:37:38;15.38;;;13.75;;
45236;SDS011;30973;51.442;3.580;2022-07-23T11:40:11;16.85;;;14.45;;
45236;SDS011;30973;51.442;3.580;2022-07-23T11:42:50;16.08;;;14.38;;
45236;SDS011;30973;51.442;3.580;2022-07-23T11:45:29;18.48;;;15.05;;
45236;SDS011;30973;51.442;3.580;2022-07-23T11:48:03;20.00;;;16.50;;
45236;SDS011;30973;51.442;3.580;2022-07-23T11:50:31;18.48;;;15.13;;
45236;SDS011;30973;51.442;3.580;2022-07-23T11:52:59;15.52;;;13.52;;
45236;SDS011;30973;51.442;3.580;2022-07-23T11:55:27;20.00;;;16.63;;
45236;SDS011;30973;51.442;3.580;2022-07-23T11:57:55;17.50;;;14.68;;
45236;SDS011;30973;51.442;3.580;2022-07-23T12:00:26;19.35;;;15.98;;
45236;SDS011;30973;51.442;3.580;2022-07-23T12:02:56;19.40;;;15.63;;
45236;SDS011;30973;51.442;3.580;2022-07-23T12:05:29;17.88;;;15.10;;
45236;SDS011;30973;51.442;3.580;2022-07-23T12:07:59;19.90;;;16.75;;
45236;SDS011;30973;51.442;3.580;2022-07-23T12:10:28;18.35;;;15.88;;
45236;SDS011;30973;51.442;3.580;2022-07-23T12:13:00;20.52;;;16.10;;
45236;SDS011;30973;51.442;3.580;2022-07-23T12:15:30;18.05;;;16.00;;
45236;SDS011;30973;51.442;3.580;2022-07-23T12:18:05;19.20;;;16.35;;
45236;SDS011;30973;51.442;3.580;2022-07-23T12:20:35;19.60;;;16.05;;
45236;SDS011;30973;51.442;3.580;2022-07-23T12:23:10;21.75;;;15.60;;
45236;SDS011;30973;51.442;3.580;2022-07-23T12:25:47;18.10;;;14.43;;
45236;SDS011;30973;51.442;3.580;2022-07-23T12:28:20;17.38;;;15.43;;
45236;SDS011;30973;51.442;3.580;2022-07-23T12:30:49;19.33;;;17.27;;
45236;SDS011;30973;51.442;3.580;2022-07-23T12:33:22;19.63;;;16.23;;
45236;SDS011;30973;51.442;3.580;2022-07-23T12:35:54;15.52;;;13.90;;
45236;SDS011;30973;51.442;3.580;2022-07-23T12:38:23;19.42;;;13.35;;
45236;SDS011;30973;51.442;3.580;2022-07-23T12:40:53;19.75;;;16.13;;
45236;SDS011;30973;51.442;3.580;2022-07-23T12:43:26;20.80;;;16.55;;
45236;SDS011;30973;51.442;3.580;2022-07-23T12:46:12;18.85;;;16.45;;
45236;SDS011;30973;51.442;3.580;2022-07-23T12:51:18;21.63;;;17.13;;
45236;SDS011;30973;51.442;3.580;2022-07-23T13:01:29;15.52;;;13.73;;
45236;SDS011;30973;51.442;3.580;2022-07-23T13:04:02;20.40;;;14.50;;
45236;SDS011;30973;51.442;3.580;2022-07-23T13:06:46;19.52;;;15.30;;
45236;SDS011;30973;51.442;3.580;2022-07-23T13:09:17;16.95;;;14.75;;
45236;SDS011;30973;51.442;3.580;2022-07-23T13:11:51;20.50;;;16.83;;
45236;SDS011;30973;51.442;3.580;2022-07-23T13:14:23;19.30;;;16.17;;
45236;SDS011;30973;51.442;3.580;2022-07-23T13:16:52;17.63;;;14.77;;
45236;SDS011;30973;51.442;3.580;2022-07-23T13:19:22;18.88;;;15.40;;
45236;SDS011;30973;51.442;3.580;2022-07-23T13:21:51;18.40;;;16.30;;
45236;SDS011;30973;51.442;3.580;2022-07-23T13:24:20;18.92;;;16.15;;
45236;SDS011;30973;51.442;3.580;2022-07-23T13:26:48;18.55;;;15.43;;
45236;SDS011;30973;51.442;3.580;2022-07-23T13:29:18;17.58;;;14.65;;
45236;SDS011;30973;51.442;3.580;2022-07-23T13:31:46;17.08;;;15.07;;
45236;SDS011;30973;51.442;3.580;2022-07-23T13:34:15;19.25;;;17.13;;
45236;SDS011;30973;51.442;3.580;2022-07-23T13:36:42;17.85;;;15.95;;
45236;SDS011;30973;51.442;3.580;2022-07-23T13:39:10;16.90;;;14.27;;
45236;SDS011;30973;51.442;3.580;2022-07-23T13:41:38;18.52;;;12.57;;
45236;SDS011;30973;51.442;3.580;2022-07-23T13:44:05;16.17;;;13.77;;
45236;SDS011;30973;51.442;3.580;2022-07-23T13:46:33;15.25;;;12.75;;
45236;SDS011;30973;51.442;3.580;2022-07-23T13:49:02;16.25;;;13.63;;
45236;SDS011;30973;51.442;3.580;2022-07-23T13:51:32;17.80;;;14.80;;
45236;SDS011;30973;51.442;3.580;2022-07-23T13:54:00;16.63;;;13.82;;
45236;SDS011;30973;51.442;3.580;2022-07-23T13:56:29;15.80;;;12.85;;
45236;SDS011;30973;51.442;3.580;2022-07-23T13:58:56;14.75;;;12.73;;
45236;SDS011;30973;51.442;3.580;2022-07-23T14:01:23;12.68;;;11.18;;
45236;SDS011;30973;51.442;3.580;2022-07-23T14:03:51;13.77;;;11.90;;
45236;SDS011;30973;51.442;3.580;2022-07-23T14:06:19;17.63;;;13.50;;
45236;SDS011;30973;51.442;3.580;2022-07-23T14:08:58;17.30;;;13.65;;
45236;SDS011;30973;51.442;3.580;2022-07-23T14:11:27;12.68;;;11.10;;
45236;SDS011;30973;51.442;3.580;2022-07-23T14:13:55;13.82;;;12.38;;
45236;SDS011;30973;51.442;3.580;2022-07-23T14:16:22;17.58;;;14.70;;
45236;SDS011;30973;51.442;3.580;2022-07-23T14:18:50;17.90;;;13.30;;
45236;SDS011;30973;51.442;3.580;2022-07-23T14:21:17;11.93;;;10.73;;
45236;SDS011;30973;51.442;3.580;2022-07-23T14:23:45;14.63;;;12.95;;
45236;SDS011;30973;51.442;3.580;2022-07-23T14:26:12;16.27;;;11.32;;
45236;SDS011;30973;51.442;3.580;2022-07-23T14:28:40;15.02;;;10.60;;
45236;SDS011;30973;51.442;3.580;2022-07-23T14:31:08;14.43;;;11.38;;
45236;SDS011;30973;51.442;3.580;2022-07-23T14:33:47;13.68;;;10.80;;
45236;SDS011;30973;51.442;3.580;2022-07-23T14:36:15;13.77;;;9.63;;
45236;SDS011;30973;51.442;3.580;2022-07-23T14:38:43;10.88;;;8.68;;
45236;SDS011;30973;51.442;3.580;2022-07-23T14:41:10;9.50;;;8.23;;
45236;SDS011;30973;51.442;3.580;2022-07-23T14:43:37;13.27;;;9.25;;
45236;SDS011;30973;51.442;3.580;2022-07-23T14:46:05;12.15;;;8.35;;
45236;SDS011;30973;51.442;3.580;2022-07-23T14:48:32;10.82;;;7.70;;
45236;SDS011;30973;51.442;3.580;2022-07-23T14:50:59;12.73;;;8.23;;
45236;SDS011;30973;51.442;3.580;2022-07-23T14:53:28;9.38;;;8.25;;
45236;SDS011;30973;51.442;3.580;2022-07-23T14:55:56;15.82;;;9.25;;
45236;SDS011;30973;51.442;3.580;2022-07-23T14:58:24;10.20;;;8.45;;
45236;SDS011;30973;51.442;3.580;2022-07-23T15:00:51;9.98;;;7.97;;
45236;SDS011;30973;51.442;3.580;2022-07-23T15:03:19;12.38;;;8.68;;
45236;SDS011;30973;51.442;3.580;2022-07-23T15:05:47;13.73;;;9.48;;
45236;SDS011;30973;51.442;3.580;2022-07-23T15:08:14;12.48;;;10.07;;
45236;SDS011;30973;51.442;3.580;2022-07-23T15:10:49;11.13;;;7.93;;
45236;SDS011;30973;51.442;3.580;2022-07-23T15:13:17;13.80;;;9.70;;
45236;SDS011;30973;51.442;3.580;2022-07-23T15:15:44;14.57;;;9.25;;
45236;SDS011;30973;51.442;3.580;2022-07-23T15:18:21;11.40;;;9.82;;
45236;SDS011;30973;51.442;3.580;2022-07-23T15:20:49;13.18;;;9.73;;
45236;SDS011;30973;51.442;3.580;2022-07-23T15:23:16;10.57;;;8.10;;
45236;SDS011;30973;51.442;3.580;2022-07-23T15:25:43;13.43;;;9.43;;
45236;SDS011;30973;51.442;3.580;2022-07-23T15:28:17;11.38;;;9.13;;
45236;SDS011;30973;51.442;3.580;2022-07-23T15:30:48;13.18;;;9.43;;
45236;SDS011;30973;51.442;3.580;2022-07-23T15:33:16;10.02;;;8.40;;
45236;SDS011;30973;51.442;3.580;2022-07-23T15:35:47;14.88;;;9.32;;
45236;SDS011;30973;51.442;3.580;2022-07-23T15:38:14;14.60;;;9.30;;
45236;SDS011;30973;51.442;3.580;2022-07-23T15:40:51;10.80;;;8.63;;